Time;durP1;ratioP1;P1;durP2;ratioP2;P2;SDS_P1;SDS_P2;PMS_P1;PMS_P2;Temp;Humidity;BMP_temperature;BMP_pressure;BME280_temperature;BME280_humidity;BME280_pressure;Samples;Min_cycle;Max_cycle;Signal;HPM_P1;HPM_P2
2022/03/31 00:00:57;;;;;;;33.20;19.43;;;;;7.20;99572.00;;;;10090576;29;20192;-83
2022/03/31 00:05:59;;;;;;;32.73;20.63;;;;;7.20;99575.00;;;;10071438;29;20226;-82
2022/03/31 00:11:00;;;;;;;33.97;20.33;;;;;7.10;99561.00;;;;10048492;29;20220;-82
2022/03/31 00:16:03;;;;;;;32.53;21.70;;;;;7.00;99568.00;;;;10061949;29;20233;-83
2022/03/31 00:21:07;;;;;;;28.23;19.13;;;;;6.90;99563.00;;;;10062849;29;20200;-82
2022/03/31 00:26:09;;;;;;;29.43;18.90;;;;;6.90;99550.00;;;;10069372;29;20204;-82
2022/03/31 00:31:11;;;;;;;30.03;18.30;;;;;6.80;99547.00;;;;10068445;29;20803;-82
2022/03/31 00:36:13;;;;;;;28.23;17.43;;;;;6.80;99553.00;;;;10083358;29;20675;-83
2022/03/31 00:41:16;;;;;;;24.43;16.80;;;;;6.70;99547.00;;;;10084145;29;20228;-84
2022/03/31 00:46:22;;;;;;;25.47;16.40;;;;;6.60;99541.00;;;;10082935;29;20257;-83
2022/03/31 00:51:24;;;;;;;20.70;14.97;;;;;6.50;99534.00;;;;10067453;29;20291;-83
2022/03/31 00:56:26;;;;;;;23.50;17.23;;;;;6.50;99531.00;;;;10067467;29;20200;-83
2022/03/31 01:01:28;;;;;;;24.93;17.73;;;;;6.40;99525.00;;;;10082358;29;20268;-83
2022/03/31 01:06:30;;;;;;;25.03;17.40;;;;;6.30;99517.00;;;;10081790;29;20189;-83
2022/03/31 01:11:32;;;;;;;23.50;16.93;;;;;6.30;99503.00;;;;10080761;29;20236;-83
2022/03/31 01:16:35;;;;;;;29.27;17.33;;;;;6.30;99500.00;;;;10046948;29;20626;-82
2022/03/31 01:21:39;;;;;;;25.53;16.80;;;;;6.30;99495.00;;;;10066201;29;20244;-83
2022/03/31 01:26:42;;;;;;;22.77;15.60;;;;;6.40;99489.00;;;;10068600;29;20732;-83
2022/03/31 01:31:44;;;;;;;23.43;15.93;;;;;6.40;99495.00;;;;10051391;29;20276;-82
2022/03/31 01:36:46;;;;;;;21.27;15.63;;;;;6.40;99489.00;;;;10067166;29;20563;-83
2022/03/31 01:41:48;;;;;;;21.13;15.10;;;;;6.40;99498.00;;;;10066001;29;20216;-82
2022/03/31 01:46:50;;;;;;;20.83;14.10;;;;;6.40;99491.00;;;;10066151;29;20310;-82
2022/03/31 01:51:52;;;;;;;21.00;14.90;;;;;6.40;99486.00;;;;10095856;29;20196;-82
2022/03/31 01:56:54;;;;;;;25.67;16.27;;;;;6.40;99468.00;;;;10080706;29;20304;-82
2022/03/31 02:01:56;;;;;;;19.67;14.77;;;;;6.40;99475.00;;;;10064809;29;20236;-83
2022/03/31 02:06:59;;;;;;;18.57;14.00;;;;;6.40;99477.00;;;;10080778;29;20204;-82
2022/03/31 02:12:02;;;;;;;15.70;12.07;;;;;6.40;99472.00;;;;10065458;29;20224;-81
2022/03/31 02:17:11;;;;;;;15.17;10.87;;;;;6.40;99469.00;;;;10064393;29;20205;-82
2022/03/31 02:22:13;;;;;;;11.70;9.10;;;;;6.40;99471.00;;;;10048571;29;20260;-82
2022/03/31 02:27:15;;;;;;;14.70;10.43;;;;;6.50;99471.00;;;;10087022;29;20200;-83
2022/03/31 02:32:17;;;;;;;14.27;9.17;;;;;6.50;99466.00;;;;10072075;29;20603;-82
2022/03/31 02:37:19;;;;;;;12.43;9.40;;;;;6.50;99460.00;;;;10071360;29;20204;-82
2022/03/31 02:42:21;;;;;;;13.87;9.57;;;;;6.50;99454.00;;;;10071030;29;20220;-83
2022/03/31 02:47:23;;;;;;;11.60;9.63;;;;;6.50;99449.00;;;;10056211;29;20291;-84
2022/03/31 02:52:25;;;;;;;14.07;10.57;;;;;6.50;99446.00;;;;10071643;29;20208;-83
2022/03/31 02:57:27;;;;;;;13.30;9.30;;;;;6.50;99445.00;;;;10071230;29;20205;-82
2022/03/31 03:02:29;;;;;;;12.83;9.90;;;;;6.50;99450.00;;;;10101463;29;20840;-83
2022/03/31 03:07:31;;;;;;;13.83;10.10;;;;;6.50;99451.00;;;;10070691;29;20571;-82
2022/03/31 03:12:33;;;;;;;15.23;10.40;;;;;6.50;99459.00;;;;10085299;29;20548;-82
2022/03/31 03:17:39;;;;;;;12.10;9.57;;;;;6.40;99453.00;;;;10069797;29;20192;-82
2022/03/31 03:22:47;;;;;;;13.10;9.77;;;;;6.40;99448.00;;;;10070391;29;20306;-82
2022/03/31 03:27:50;;;;;;;12.83;9.07;;;;;6.40;99461.00;;;;10070427;29;20200;-82
2022/03/31 03:32:52;;;;;;;11.50;9.07;;;;;6.40;99460.00;;;;10101061;29;20184;-82
2022/03/31 03:37:55;;;;;;;10.90;9.07;;;;;6.30;99463.00;;;;10084573;29;20204;-82
2022/03/31 03:42:57;;;;;;;14.60;9.20;;;;;6.30;99456.00;;;;10059804;29;20651;-82
2022/03/31 03:47:59;;;;;;;10.43;7.77;;;;;6.20;99449.00;;;;10108158;29;20192;-82
2022/03/31 03:53:04;;;;;;;8.57;6.60;;;;;6.00;99462.00;;;;10107975;29;20191;-82
2022/03/31 03:58:06;;;;;;;12.10;7.23;;;;;5.80;99468.00;;;;10107405;29;20208;-82
2022/03/31 04:03:09;;;;;;;9.07;6.70;;;;;5.60;99468.00;;;;10138579;29;20216;-82
2022/03/31 04:08:11;;;;;;;7.13;5.50;;;;;5.30;99470.00;;;;10122668;29;20228;-83
2022/03/31 04:13:13;;;;;;;7.17;6.00;;;;;4.80;99488.00;;;;10099498;29;20212;-82
2022/03/31 04:18:16;;;;;;;8.27;6.33;;;;;4.50;99491.00;;;;10038322;29;20299;-82
2022/03/31 04:23:18;;;;;;;4.97;4.03;;;;;4.20;99469.00;;;;10045238;29;20239;-81
2022/03/31 04:28:20;;;;;;;4.00;3.60;;;;;3.90;99493.00;;;;10029840;29;20202;-82
2022/03/31 04:33:22;;;;;;;3.97;3.07;;;;;3.70;99492.00;;;;10029690;29;20201;-83
2022/03/31 04:38:24;;;;;;;3.53;3.23;;;;;3.40;99510.00;;;;10076247;29;20204;-82
2022/03/31 04:43:26;;;;;;;4.60;4.17;;;;;3.20;99516.00;;;;10067528;29;20216;-83
2022/03/31 04:48:30;;;;;;;4.70;4.30;;;;;3.20;99531.00;;;;10052021;29;20204;-83
2022/03/31 04:53:32;;;;;;;6.17;4.50;;;;;3.10;99533.00;;;;10044109;29;20205;-83
2022/03/31 04:58:36;;;;;;;4.27;3.87;;;;;3.10;99522.00;;;;10060319;29;20220;-83
2022/03/31 05:03:39;;;;;;;3.97;3.67;;;;;3.00;99529.00;;;;10030997;29;20209;-83
2022/03/31 05:08:42;;;;;;;2.83;2.63;;;;;2.90;99530.00;;;;10043248;29;20237;-83
2022/03/31 05:13:43;;;;;;;3.83;3.53;;;;;2.80;99539.00;;;;10055022;29;20204;-83
2022/03/31 05:18:47;;;;;;;4.00;3.60;;;;;2.70;99541.00;;;;10068326;29;20208;-83
2022/03/31 05:23:49;;;;;;;5.67;4.07;;;;;2.60;99532.00;;;;10039388;29;20213;-82
2022/03/31 05:28:51;;;;;;;5.00;3.63;;;;;2.50;99549.00;;;;10081806;29;20228;-82
2022/03/31 05:33:53;;;;;;;4.50;4.10;;;;;2.60;99547.00;;;;10051888;29;20200;-82
2022/03/31 05:38:56;;;;;;;4.40;4.00;;;;;2.50;99542.00;;;;10065869;29;20235;-82
2022/03/31 05:43:59;;;;;;;5.00;4.50;;;;;2.50;99552.00;;;;10081347;29;20236;-83
2022/03/31 05:49:02;;;;;;;5.63;5.03;;;;;2.40;99556.00;;;;10080915;29;20210;-81
2022/03/31 05:54:04;;;;;;;6.03;5.27;;;;;2.40;99562.00;;;;10081419;29;20193;-82
2022/03/31 05:59:06;;;;;;;5.80;5.20;;;;;2.50;99562.00;;;;10080553;29;20256;-82
2022/03/31 06:04:08;;;;;;;5.87;5.27;;;;;2.50;99561.00;;;;10111263;29;20721;-82
2022/03/31 06:09:10;;;;;;;6.47;5.63;;;;;2.60;99574.00;;;;10060680;29;20295;-82
2022/03/31 06:14:13;;;;;;;7.93;5.63;;;;;2.60;99586.00;;;;10077669;29;20196;-82
2022/03/31 06:19:16;;;;;;;7.23;6.53;;;;;2.60;99590.00;;;;10078584;29;20202;-82
2022/03/31 06:24:17;;;;;;;7.10;6.10;;;;;2.60;99595.00;;;;10079123;29;20208;-82
2022/03/31 06:29:20;;;;;;;7.03;6.13;;;;;2.60;99598.00;;;;10062784;29;20291;-84
2022/03/31 06:34:26;;;;;;;7.70;6.87;;;;;2.70;99596.00;;;;10063356;29;20225;-84
2022/03/31 06:39:28;;;;;;;7.03;6.33;;;;;2.80;99600.00;;;;10079760;29;20208;-83
2022/03/31 06:44:31;;;;;;;6.67;5.90;;;;;2.90;99598.00;;;;10079124;29;20217;-82
2022/03/31 06:49:34;;;;;;;8.80;6.73;;;;;3.00;99594.00;;;;10063401;29;20205;-83
2022/03/31 06:54:36;;;;;;;6.80;6.10;;;;;3.10;99599.00;;;;10063769;29;20196;-82
2022/03/31 06:59:38;;;;;;;7.67;6.83;;;;;3.20;99598.00;;;;10078916;29;20196;-83
2022/03/31 07:04:40;;;;;;;7.83;6.23;;;;;3.20;99592.00;;;;10032958;29;20215;-82
2022/03/31 07:09:42;;;;;;;7.07;6.33;;;;;3.20;99591.00;;;;10061708;29;20254;-82
2022/03/31 07:14:44;;;;;;;7.13;6.03;;;;;3.30;99591.00;;;;10068202;29;20192;-83
2022/03/31 07:19:46;;;;;;;7.40;6.10;;;;;3.40;99591.00;;;;10061221;29;20185;-83
2022/03/31 07:24:49;;;;;;;7.00;6.13;;;;;3.40;99593.00;;;;10058301;29;20209;-83
2022/03/31 07:29:52;;;;;;;6.40;5.80;;;;;3.40;99593.00;;;;10082660;29;20249;-82
2022/03/31 07:34:54;;;;;;;7.83;5.70;;;;;3.60;99589.00;;;;10037698;29;20332;-82
2022/03/31 07:39:56;;;;;;;7.90;5.70;;;;;3.70;99601.00;;;;10085098;29;20200;-82
2022/03/31 07:45:04;;;;;;;6.77;5.73;;;;;3.70;99602.00;;;;10072200;29;20216;-82
2022/03/31 07:50:09;;;;;;;8.67;5.93;;;;;3.80;99594.00;;;;10088909;29;20211;-82
2022/03/31 07:55:13;;;;;;;7.13;6.43;;;;;3.90;99593.00;;;;10053473;29;20192;-79
2022/03/31 08:00:16;;;;;;;7.90;7.00;;;;;4.00;99591.00;;;;10017526;29;20522;-81
2022/03/31 08:05:24;;;;;;;7.33;6.63;;;;;4.10;99588.00;;;;10085370;29;20226;-83
2022/03/31 08:10:26;;;;;;;10.17;7.17;;;;;4.10;99585.00;;;;10063676;29;20229;-82
2022/03/31 08:15:27;;;;;;;8.83;7.77;;;;;4.40;99594.00;;;;10052728;29;20196;-82
2022/03/31 08:20:31;;;;;;;7.70;6.27;;;;;4.40;99592.00;;;;10084481;29;20196;-82
2022/03/31 08:25:34;;;;;;;9.77;7.30;;;;;4.40;99601.00;;;;10069118;29;20212;-82
2022/03/31 08:30:36;;;;;;;8.63;6.90;;;;;4.50;99595.00;;;;10084523;29;20248;-82
2022/03/31 08:35:38;;;;;;;9.20;6.93;;;;;4.80;99598.00;;;;10064760;29;20223;-81
2022/03/31 08:40:42;;;;;;;10.37;7.37;;;;;5.00;99588.00;;;;10082371;29;20663;-82
2022/03/31 08:45:49;;;;;;;9.40;7.60;;;;;5.20;99583.00;;;;10067308;29;20699;-82
2022/03/31 08:50:50;;;;;;;8.07;6.53;;;;;5.40;99579.00;;;;10084185;29;20229;-82
2022/03/31 08:55:52;;;;;;;7.10;6.40;;;;;5.60;99581.00;;;;10091334;29;20188;-81
2022/03/31 09:00:54;;;;;;;7.07;6.00;;;;;5.80;99574.00;;;;10104675;29;20230;-82
2022/03/31 09:05:56;;;;;;;8.10;6.40;;;;;5.90;99588.00;;;;10116257;29;20220;-82
2022/03/31 09:11:00;;;;;;;6.03;5.43;;;;;5.90;99593.00;;;;10095430;29;20678;-81
2022/03/31 09:16:06;;;;;;;7.67;5.43;;;;;5.90;99597.00;;;;10052872;29;20208;-81
2022/03/31 09:21:10;;;;;;;8.17;5.77;;;;;6.00;99587.00;;;;10105819;29;20199;-82
2022/03/31 09:26:15;;;;;;;7.80;6.40;;;;;6.00;99584.00;;;;10120730;29;20212;-82
2022/03/31 09:31:26;;;;;;;7.00;5.00;;;;;6.00;99587.00;;;;10090754;29;20259;-83
2022/03/31 09:36:28;;;;;;;5.63;4.73;;;;;5.90;99587.00;;;;10104473;29;20203;-82
2022/03/31 09:41:35;;;;;;;6.23;4.80;;;;;5.80;99584.00;;;;10105055;29;20231;-82
2022/03/31 09:46:39;;;;;;;6.13;5.07;;;;;6.10;99589.00;;;;10119840;29;20663;-82
2022/03/31 09:51:47;;;;;;;7.87;4.97;;;;;6.50;99579.00;;;;10090266;29;20214;-83
2022/03/31 09:56:49;;;;;;;4.97;4.47;;;;;7.50;99585.00;;;;10104265;29;20670;-82
2022/03/31 10:01:52;;;;;;;6.87;4.03;;;;;8.20;99578.00;;;;10104231;29;20313;-82
2022/03/31 10:06:55;;;;;;;4.80;4.27;;;;;8.50;99585.00;;;;10104458;29;20257;-82
2022/03/31 10:12:14;;;;;;;4.90;3.90;;;;;8.00;99588.00;;;;10103775;29;20241;-82
2022/03/31 10:17:16;;;;;;;4.77;4.13;;;;;7.30;99585.00;;;;10134487;29;20200;-82
2022/03/31 10:27:45;;;;;;;4.73;4.20;;;;;6.60;99592.00;;;;10118404;29;20199;-82
2022/03/31 10:32:55;;;;;;;4.07;3.77;;;;;7.50;99595.00;;;;10103622;29;20223;-82
2022/03/31 10:38:09;;;;;;;4.60;3.67;;;;;8.50;99581.00;;;;10064608;29;20652;-81
2022/03/31 10:43:31;;;;;;;4.50;3.80;;;;;8.90;99575.00;;;;10097554;29;20307;-81
2022/03/31 10:48:33;;;;;;;5.13;3.77;;;;;8.40;99581.00;;;;10103138;29;20227;-82
2022/03/31 10:53:40;;;;;;;6.27;3.73;;;;;7.70;99584.00;;;;10086517;29;20226;-82
2022/03/31 10:58:43;;;;;;;3.43;3.13;;;;;7.70;99568.00;;;;10098001;29;20203;-82
2022/03/31 11:03:50;;;;;;;3.60;3.03;;;;;9.10;99555.00;;;;10110231;29;20212;-83
2022/03/31 11:08:52;;;;;;;3.27;2.97;;;;;10.20;99556.00;;;;10117737;29;20228;-82
2022/03/31 11:13:55;;;;;;;3.10;2.80;;;;;10.10;99561.00;;;;10108499;29;20251;-82
2022/03/31 11:18:59;;;;;;;3.80;3.40;;;;;9.40;99569.00;;;;10107671;29;20204;-81
2022/03/31 11:24:02;;;;;;;3.30;2.73;;;;;8.40;99571.00;;;;10107953;29;20707;-82
2022/03/31 11:29:13;;;;;;;3.47;2.97;;;;;8.10;99561.00;;;;10091940;29;20246;-81
2022/03/31 11:34:22;;;;;;;4.27;3.43;;;;;8.90;99543.00;;;;10107030;29;20204;-81
2022/03/31 11:39:28;;;;;;;3.90;3.47;;;;;10.20;99535.00;;;;10107415;29;20203;-82
2022/03/31 11:44:40;;;;;;;3.80;3.47;;;;;10.90;99523.00;;;;10129974;29;20204;-81
2022/03/31 11:49:43;;;;;;;5.87;3.57;;;;;10.90;99521.00;;;;10104366;29;20218;-81
2022/03/31 11:54:45;;;;;;;4.63;3.30;;;;;10.60;99505.00;;;;10075518;29;20655;-82
2022/03/31 11:59:47;;;;;;;6.73;4.17;;;;;10.20;99519.00;;;;10105693;29;20204;-80
2022/03/31 12:04:49;;;;;;;7.87;5.97;;;;;9.20;99510.00;;;;10105487;29;20271;-81
2022/03/31 12:09:51;;;;;;;6.00;5.40;;;;;8.50;99506.00;;;;10119973;29;20326;-79
2022/03/31 12:14:56;;;;;;;8.30;7.43;;;;;8.00;99510.00;;;;10110153;29;20232;-81
2022/03/31 12:19:58;;;;;;;11.13;7.83;;;;;8.10;99508.00;;;;10105287;29;20259;-81
2022/03/31 12:25:00;;;;;;;10.97;6.57;;;;;9.20;99510.00;;;;10117454;29;20220;-81
2022/03/31 12:30:04;;;;;;;8.17;7.37;;;;;10.30;99498.00;;;;10097301;29;20239;-79
2022/03/31 12:35:07;;;;;;;9.13;7.80;;;;;11.60;99492.00;;;;10078636;29;20298;-81
2022/03/31 12:40:15;;;;;;;6.57;5.00;;;;;13.00;99483.00;;;;10119667;29;20267;-78
2022/03/31 12:45:17;;;;;;;7.10;6.13;;;;;12.90;99479.00;;;;10103736;29;20235;-79
2022/03/31 12:50:22;;;;;;;7.07;6.37;;;;;11.80;99490.00;;;;10135124;29;20195;-80
2022/03/31 12:55:35;;;;;;;4.27;3.87;;;;;10.80;99488.00;;;;10088948;29;20274;-80
2022/03/31 13:00:38;;;;;;;4.97;4.57;;;;;10.60;99477.00;;;;10104175;29;20214;-81
2022/03/31 13:05:40;;;;;;;4.50;4.10;;;;;11.30;99478.00;;;;10082056;29;20212;-79
2022/03/31 13:10:42;;;;;;;5.47;4.97;;;;;11.00;99477.00;;;;10111716;29;20235;-80
2022/03/31 13:15:45;;;;;;;5.90;5.40;;;;;11.10;99468.00;;;;10105440;29;20210;-80
2022/03/31 13:20:47;;;;;;;6.80;6.20;;;;;11.10;99476.00;;;;10089736;29;20239;-80
2022/03/31 13:25:49;;;;;;;4.37;3.83;;;;;11.30;99461.00;;;;10120111;29;20263;-80
2022/03/31 13:30:51;;;;;;;3.87;2.53;;;;;12.90;99447.00;;;;10116201;29;20196;-80
2022/03/31 13:35:53;;;;;;;2.67;2.47;;;;;13.20;99459.00;;;;10103126;29;20563;-80
2022/03/31 13:40:55;;;;;;;3.10;2.80;;;;;11.60;99441.00;;;;10103940;29;20689;-79
2022/03/31 13:45:57;;;;;;;2.93;2.33;;;;;13.00;99440.00;;;;10103082;29;20215;-80
2022/03/31 13:50:59;;;;;;;2.87;2.50;;;;;14.00;99451.00;;;;10103834;29;20202;-80
2022/03/31 13:56:02;;;;;;;4.23;2.93;;;;;14.10;99437.00;;;;10102915;29;20214;-80
2022/03/31 14:01:12;;;;;;;2.80;2.60;;;;;15.20;99420.00;;;;10102726;29;20290;-79
2022/03/31 14:06:16;;;;;;;3.87;2.70;;;;;14.00;99446.00;;;;10117228;29;20671;-79
2022/03/31 14:11:24;;;;;;;2.70;2.50;;;;;15.40;99438.00;;;;10118109;29;20342;-80
2022/03/31 14:16:28;;;;;;;3.03;2.83;;;;;16.40;99417.00;;;;10114956;29;20206;-80
2022/03/31 14:21:30;;;;;;;3.77;2.77;;;;;15.70;99390.00;;;;10107583;29;20613;-79
2022/03/31 14:26:33;;;;;;;9.53;5.70;;;;;14.00;99428.00;;;;10108786;29;20218;-79
2022/03/31 14:31:35;;;;;;;3.53;3.23;;;;;12.00;99436.00;;;;10123456;29;20195;-78
2022/03/31 14:36:38;;;;;;;3.53;3.23;;;;;10.90;99430.00;;;;10124320;29;20198;-79
2022/03/31 14:41:43;;;;;;;3.73;3.27;;;;;11.70;99381.00;;;;10094073;29;20669;-79
2022/03/31 14:46:46;;;;;;;4.50;4.20;;;;;18.00;99367.00;;;;10108401;29;20220;-78
2022/03/31 14:51:48;;;;;;;5.40;4.90;;;;;14.10;99405.00;;;;10108694;29;20204;-77
2022/03/31 14:56:50;;;;;;;6.17;5.57;;;;;11.80;99420.00;;;;10107348;29;20236;-77
2022/03/31 15:01:52;;;;;;;5.87;5.37;;;;;10.90;99425.00;;;;10123897;29;20220;-77
2022/03/31 15:06:55;;;;;;;6.07;5.50;;;;;13.80;99383.00;;;;10122396;29;20722;-77
2022/03/31 15:17:18;;;;;;;6.83;5.70;;;;;12.20;99415.00;;;;10126388;29;20681;-77
2022/03/31 15:22:20;;;;;;;10.10;5.20;;;;;11.40;99406.00;;;;10106334;29;20207;-77
2022/03/31 15:27:22;;;;;;;4.83;4.50;;;;;10.80;99400.00;;;;10122541;29;20251;-78
2022/03/31 15:32:26;;;;;;;5.77;5.27;;;;;10.10;99401.00;;;;10120305;29;20211;-77
2022/03/31 15:37:29;;;;;;;7.40;6.70;;;;;9.80;99408.00;;;;10106977;29;20247;-78
2022/03/31 15:42:31;;;;;;;8.77;7.37;;;;;9.70;99400.00;;;;10107174;29;20203;-74
2022/03/31 15:47:34;;;;;;;7.40;6.80;;;;;9.80;99402.00;;;;10107580;29;20212;-77
2022/03/31 15:52:42;;;;;;;9.47;8.67;;;;;9.90;99402.00;;;;10138140;29;20198;-77
2022/03/31 15:57:44;;;;;;;9.93;9.03;;;;;9.80;99403.00;;;;10151279;29;20237;-77
2022/03/31 16:02:46;;;;;;;9.87;8.97;;;;;9.50;99411.00;;;;10105965;29;20206;-78
2022/03/31 16:07:48;;;;;;;10.43;9.43;;;;;9.00;99420.00;;;;10105869;29;20267;-78
2022/03/31 16:12:51;;;;;;;10.23;9.23;;;;;8.50;99415.00;;;;10122378;29;20595;-77
2022/03/31 16:17:53;;;;;;;10.33;9.37;;;;;8.50;99420.00;;;;10119455;29;20199;-78
2022/03/31 16:28:32;;;;;;;9.33;7.77;;;;;7.90;99422.00;;;;10071830;29;20227;-77
2022/03/31 16:33:34;;;;;;;9.20;8.30;;;;;7.70;99425.00;;;;10083946;29;20667;-77
2022/03/31 16:38:38;;;;;;;9.07;7.83;;;;;7.60;99434.00;;;;10103929;29;20200;-77
2022/03/31 16:43:41;;;;;;;9.90;8.37;;;;;7.40;99431.00;;;;10103868;29;20208;-77
2022/03/31 16:48:45;;;;;;;9.43;8.43;;;;;7.20;99432.00;;;;10102456;29;20207;-79
2022/03/31 16:53:47;;;;;;;9.87;6.67;;;;;6.70;99446.00;;;;10119043;29;20318;-77
2022/03/31 16:58:50;;;;;;;11.67;7.33;;;;;6.00;99444.00;;;;10087890;29;20607;-78
2022/03/31 17:03:53;;;;;;;8.93;6.77;;;;;5.40;99457.00;;;;10117857;29;20280;-78
2022/03/31 17:08:55;;;;;;;7.40;6.60;;;;;5.10;99465.00;;;;10103563;29;20227;-79
2022/03/31 17:13:57;;;;;;;3.57;2.97;;;;;4.90;99469.00;;;;10103276;29;20200;-80
2022/03/31 17:18:59;;;;;;;4.13;3.73;;;;;4.90;99475.00;;;;10066476;29;20208;-81
2022/03/31 17:24:01;;;;;;;4.07;3.67;;;;;4.80;99488.00;;;;10116493;29;20216;-81
2022/03/31 17:29:04;;;;;;;4.77;3.90;;;;;4.70;99491.00;;;;10096499;29;20200;-80
2022/03/31 17:34:05;;;;;;;4.23;3.83;;;;;4.80;99495.00;;;;10072093;29;20272;-80
2022/03/31 17:39:07;;;;;;;3.50;3.20;;;;;4.70;99499.00;;;;10112931;29;20288;-81
2022/03/31 17:44:09;;;;;;;3.60;3.30;;;;;4.50;99500.00;;;;10102829;29;20235;-81
2022/03/31 17:49:12;;;;;;;3.40;3.10;;;;;4.60;99502.00;;;;10118337;29;20207;-80
2022/03/31 17:54:14;;;;;;;3.83;3.37;;;;;4.60;99517.00;;;;10116695;29;20289;-80
2022/03/31 17:59:17;;;;;;;4.53;3.43;;;;;4.40;99523.00;;;;10102773;29;20203;-80
2022/03/31 18:04:20;;;;;;;3.17;2.87;;;;;4.40;99528.00;;;;10100636;29;20762;-80
2022/03/31 18:09:22;;;;;;;3.83;3.20;;;;;4.20;99526.00;;;;10102041;29;20279;-80
2022/03/31 18:14:24;;;;;;;3.70;3.27;;;;;4.20;99530.00;;;;10123526;29;20204;-80
2022/03/31 18:19:27;;;;;;;3.70;3.27;;;;;4.10;99544.00;;;;10087284;29;20595;-79
2022/03/31 18:24:31;;;;;;;4.10;3.70;;;;;4.10;99537.00;;;;10103524;29;20230;-78
2022/03/31 18:35:13;;;;;;;6.13;4.83;;;;;4.00;99531.00;;;;9984263;29;20202;-80
2022/03/31 18:40:15;;;;;;;5.33;4.60;;;;;4.00;99538.00;;;;10087823;29;20401;-80
2022/03/31 18:45:17;;;;;;;4.77;4.27;;;;;4.10;99542.00;;;;10117829;29;20207;-79
2022/03/31 18:50:21;;;;;;;7.13;4.80;;;;;4.00;99542.00;;;;10101601;29;20204;-79
2022/03/31 18:55:23;;;;;;;6.03;5.43;;;;;3.70;99552.00;;;;10107016;29;20218;-79
2022/03/31 19:00:26;;;;;;;8.57;5.43;;;;;3.50;99549.00;;;;10115762;29;20219;-79
2022/03/31 19:05:28;;;;;;;7.20;6.40;;;;;3.40;99541.00;;;;10101839;29;20259;-80
2022/03/31 19:10:30;;;;;;;8.60;7.13;;;;;3.50;99546.00;;;;10106657;29;20239;-79
2022/03/31 19:15:32;;;;;;;10.87;8.00;;;;;3.50;99539.00;;;;10102428;29;20260;-79
2022/03/31 19:20:35;;;;;;;12.17;9.07;;;;;3.60;99547.00;;;;10108153;29;20689;-79
2022/03/31 19:25:38;;;;;;;11.10;9.87;;;;;3.60;99544.00;;;;10105171;29;20204;-80
2022/03/31 19:36:38;;;;;;;9.97;8.80;;;;;3.40;99545.00;;;;11653903;23;20244;-79
2022/03/31 19:41:42;;;;;;;10.23;9.13;;;;;3.40;99547.00;;;;10192202;29;20750;-81
2022/03/31 19:46:44;;;;;;;11.77;10.17;;;;;3.40;99548.00;;;;10165972;29;20246;-79
2022/03/31 19:51:47;;;;;;;12.63;10.73;;;;;3.30;99548.00;;;;10165306;29;20293;-81
2022/03/31 19:56:49;;;;;;;12.67;11.30;;;;;3.30;99552.00;;;;10161217;29;20187;-79
2022/03/31 20:01:51;;;;;;;14.97;11.77;;;;;3.30;99557.00;;;;10176119;29;20217;-81
2022/03/31 20:06:53;;;;;;;14.73;11.47;;;;;3.30;99551.00;;;;10183315;29;20206;-83
2022/03/31 20:11:58;;;;;;;15.43;12.73;;;;;3.40;99555.00;;;;10157347;29;20234;-81
2022/03/31 20:17:00;;;;;;;15.73;13.60;;;;;3.40;99560.00;;;;10172156;29;20258;-80
2022/03/31 20:22:03;;;;;;;14.10;11.70;;;;;3.50;99553.00;;;;10173821;29;20202;-79
2022/03/31 20:27:07;;;;;;;15.23;12.17;;;;;3.50;99555.00;;;;10205538;29;20215;-82
2022/03/31 20:32:10;;;;;;;14.43;11.87;;;;;3.50;99564.00;;;;10194100;29;20233;-81
2022/03/31 20:37:17;;;;;;;12.57;11.17;;;;;3.60;99541.00;;;;10169494;29;20227;-81
2022/03/31 20:42:19;;;;;;;11.83;10.57;;;;;3.50;99550.00;;;;10175323;29;20206;-80
2022/03/31 20:47:23;;;;;;;14.60;11.60;;;;;3.60;99555.00;;;;10183865;29;20278;-80
2022/03/31 20:52:24;;;;;;;14.13;11.30;;;;;3.50;99551.00;;;;10175319;29;20198;-81
2022/03/31 20:57:27;;;;;;;12.23;10.93;;;;;3.50;99548.00;;;;10177321;29;20215;-80
2022/03/31 21:02:30;;;;;;;12.33;11.00;;;;;3.50;99541.00;;;;10203495;29;20199;-80
2022/03/31 21:07:32;;;;;;;12.03;10.83;;;;;3.50;99541.00;;;;10172348;29;20235;-78
2022/03/31 21:12:34;;;;;;;13.83;11.77;;;;;3.50;99539.00;;;;10183654;29;20214;-79
2022/03/31 21:17:39;;;;;;;14.97;12.70;;;;;3.50;99539.00;;;;10182121;29;20606;-79
2022/03/31 21:22:49;;;;;;;12.70;11.10;;;;;3.50;99539.00;;;;10165802;29;20213;-79
2022/03/31 21:27:52;;;;;;;9.97;8.63;;;;;3.60;99530.00;;;;10187862;29;20217;-79
2022/03/31 21:32:54;;;;;;;9.30;8.40;;;;;3.60;99525.00;;;;10179640;29;20187;-78
2022/03/31 21:37:57;;;;;;;8.73;7.90;;;;;3.60;99536.00;;;;10179340;29;20594;-79
2022/03/31 21:43:13;;;;;;;8.57;7.70;;;;;3.60;99528.00;;;;10173936;29;20226;-80
2022/03/31 21:48:31;;;;;;;9.10;8.20;;;;;3.60;99525.00;;;;10187526;29;20246;-79
2022/03/31 21:53:33;;;;;;;9.43;8.43;;;;;3.50;99535.00;;;;10142490;29;21143;-78
2022/03/31 21:58:35;;;;;;;9.63;8.63;;;;;3.50;99537.00;;;;10202496;29;20198;-79
2022/03/31 22:03:40;;;;;;;9.83;8.80;;;;;3.50;99543.00;;;;10173407;29;20202;-79
2022/03/31 22:14:19;;;;;;;11.13;9.37;;;;;3.50;99536.00;;;;10177908;29;20570;-79
2022/03/31 22:19:24;;;;;;;10.27;9.27;;;;;3.40;99540.00;;;;10150474;29;20590;-78
2022/03/31 22:24:27;;;;;;;11.50;9.97;;;;;3.40;99546.00;;;;10198546;29;20203;-79
2022/03/31 22:29:30;;;;;;;10.90;9.70;;;;;3.40;99546.00;;;;10154592;29;20259;-78
2022/03/31 22:34:32;;;;;;;11.37;10.23;;;;;3.40;99543.00;;;;10155140;29;20199;-80
2022/03/31 22:39:35;;;;;;;11.53;9.00;;;;;3.40;99556.00;;;;10181833;29;20230;-79
2022/03/31 22:44:37;;;;;;;11.57;10.17;;;;;3.40;99557.00;;;;10186815;29;20194;-78
2022/03/31 22:49:39;;;;;;;11.00;9.87;;;;;3.40;99567.00;;;;10205981;29;20226;-79
2022/03/31 22:54:41;;;;;;;11.43;10.23;;;;;3.40;99569.00;;;;10236177;29;20865;-78
2022/03/31 22:59:43;;;;;;;13.47;10.67;;;;;3.40;99576.00;;;;10229220;29;20197;-79
2022/03/31 23:04:45;;;;;;;11.47;10.33;;;;;3.40;99575.00;;;;10197284;29;20218;-79
2022/03/31 23:09:47;;;;;;;12.80;10.57;;;;;3.40;99571.00;;;;10187103;29;20554;-79
2022/03/31 23:14:49;;;;;;;11.27;10.10;;;;;3.30;99579.00;;;;10188130;29;20194;-78
2022/03/31 23:19:53;;;;;;;11.60;10.40;;;;;3.30;99579.00;;;;10186474;29;20214;-78
2022/03/31 23:24:55;;;;;;;11.90;10.73;;;;;3.30;99582.00;;;;10152241;29;20214;-78
2022/03/31 23:29:57;;;;;;;11.53;10.40;;;;;3.30;99584.00;;;;10162719;29;20938;-79
2022/03/31 23:35:04;;;;;;;12.93;10.80;;;;;3.30;99590.00;;;;10164813;29;20223;-79
2022/03/31 23:40:07;;;;;;;12.43;11.00;;;;;3.30;99585.00;;;;10161651;29;20206;-78
2022/03/31 23:45:12;;;;;;;12.87;11.43;;;;;3.30;99599.00;;;;10147573;29;20688;-77
2022/03/31 23:50:14;;;;;;;12.80;11.13;;;;;3.30;99599.00;;;;10183152;29;20227;-78
2022/03/31 23:55:17;;;;;;;13.33;11.73;;;;;3.30;99604.00;;;;10187453;29;20262;-77
